You are listening to:
RJAA Radar 120.2 - Tokyo, Japan

RJAA 051630Z 01007KT 9999 FEW020 BKN030 07/04 Q1030 NOSIG RMK 1CU020 7SC030 A3043

If stream doesn't start automatically press the play button
If stream stops then reload player then press play